sensor_id;sensor_type;location;lat;lon;timestamp;pressure;altitude;pressure_sealevel;temperature;humidity
23805;BME280;12083;52.098;7.582;2022-09-09T00:00:32;100464.19;;;18.59;75.11
23805;BME280;12083;52.098;7.582;2022-09-09T00:03:16;100460.59;;;18.60;75.13
23805;BME280;12083;52.098;7.582;2022-09-09T00:05:52;100459.72;;;18.59;74.98
23805;BME280;12083;52.098;7.582;2022-09-09T00:08:26;100457.91;;;18.60;75.16
23805;BME280;12083;52.098;7.582;2022-09-09T00:10:59;100456.13;;;18.60;75.11
23805;BME280;12083;52.098;7.582;2022-09-09T00:13:52;100462.31;;;18.61;75.18
23805;BME280;12083;52.098;7.582;2022-09-09T00:16:22;100452.53;;;18.61;75.38
23805;BME280;12083;52.098;7.582;2022-09-09T00:21:33;100450.78;;;18.60;75.98
23805;BME280;12083;52.098;7.582;2022-09-09T00:24:08;100437.38;;;18.62;75.52
23805;BME280;12083;52.098;7.582;2022-09-09T00:29:25;100441.00;;;18.61;75.90
23805;BME280;12083;52.098;7.582;2022-09-09T00:32:00;100448.13;;;18.60;75.94
23805;BME280;12083;52.098;7.582;2022-09-09T00:34:30;100441.88;;;18.61;75.93
23805;BME280;12083;52.098;7.582;2022-09-09T00:36:57;100447.19;;;18.61;76.05
23805;BME280;12083;52.098;7.582;2022-09-09T00:39:42;100434.91;;;18.59;75.92
23805;BME280;12083;52.098;7.582;2022-09-09T00:42:29;100449.16;;;18.58;76.05
23805;BME280;12083;52.098;7.582;2022-09-09T00:45:17;100456.31;;;18.57;76.20
23805;BME280;12083;52.098;7.582;2022-09-09T00:47:50;100459.91;;;18.56;76.21
23805;BME280;12083;52.098;7.582;2022-09-09T00:55:56;100455.78;;;18.50;76.39
23805;BME280;12083;52.098;7.582;2022-09-09T00:58:25;100459.41;;;18.49;76.25
23805;BME280;12083;52.098;7.582;2022-09-09T01:01:08;100453.38;;;18.46;76.38
23805;BME280;12083;52.098;7.582;2022-09-09T01:03:52;100446.38;;;18.45;76.42
23805;BME280;12083;52.098;7.582;2022-09-09T01:06:32;100442.94;;;18.43;76.61
23805;BME280;12083;52.098;7.582;2022-09-09T01:09:20;100446.56;;;18.42;76.54
23805;BME280;12083;52.098;7.582;2022-09-09T01:12:17;100439.53;;;18.41;76.43
23805;BME280;12083;52.098;7.582;2022-09-09T01:14:51;100434.41;;;18.38;76.62
23805;BME280;12083;52.098;7.582;2022-09-09T01:17:22;100428.22;;;18.37;76.61
23805;BME280;12083;52.098;7.582;2022-09-09T01:28:26;100437.34;;;18.33;77.08
23805;BME280;12083;52.098;7.582;2022-09-09T01:30:58;100434.75;;;18.32;77.28
23805;BME280;12083;52.098;7.582;2022-09-09T01:33:26;100442.75;;;18.32;77.31
23805;BME280;12083;52.098;7.582;2022-09-09T01:35:56;100446.34;;;18.31;77.36
23805;BME280;12083;52.098;7.582;2022-09-09T01:38:28;100449.00;;;18.31;77.44
23805;BME280;12083;52.098;7.582;2022-09-09T01:40:54;100452.63;;;18.30;77.44
23805;BME280;12083;52.098;7.582;2022-09-09T01:43:27;100457.84;;;18.31;77.57
23805;BME280;12083;52.098;7.582;2022-09-09T01:45:54;100450.91;;;18.29;77.77
23805;BME280;12083;52.098;7.582;2022-09-09T01:48:22;100454.50;;;18.28;77.78
23805;BME280;12083;52.098;7.582;2022-09-09T01:50:59;100456.41;;;18.26;77.87
23805;BME280;12083;52.098;7.582;2022-09-09T01:53:25;100467.22;;;18.23;77.96
23805;BME280;12083;52.098;7.582;2022-09-09T01:56:02;100469.19;;;18.19;78.21
23805;BME280;12083;52.098;7.582;2022-09-09T01:58:44;100467.78;;;18.14;78.56
23805;BME280;12083;52.098;7.582;2022-09-09T02:04:03;100471.75;;;18.06;78.57
23805;BME280;12083;52.098;7.582;2022-09-09T02:06:36;100473.63;;;18.04;78.55
23805;BME280;12083;52.098;7.582;2022-09-09T02:09:24;100470.41;;;17.99;78.75
23805;BME280;12083;52.098;7.582;2022-09-09T02:12:31;100470.56;;;17.96;79.10
23805;BME280;12083;52.098;7.582;2022-09-09T02:15:03;100472.53;;;17.93;79.01
23805;BME280;12083;52.098;7.582;2022-09-09T02:17:40;100474.44;;;17.91;78.94
23805;BME280;12083;52.098;7.582;2022-09-09T02:20:13;100475.44;;;17.88;78.86
23805;BME280;12083;52.098;7.582;2022-09-09T02:22:47;100472.97;;;17.85;79.16
23805;BME280;12083;52.098;7.582;2022-09-09T02:25:19;100475.81;;;17.82;79.07
23805;BME280;12083;52.098;7.582;2022-09-09T02:27:50;100470.69;;;17.79;79.36
23805;BME280;12083;52.098;7.582;2022-09-09T02:30:18;100471.63;;;17.78;79.25
23805;BME280;12083;52.098;7.582;2022-09-09T02:32:52;100467.44;;;17.74;79.38
23805;BME280;12083;52.098;7.582;2022-09-09T02:35:24;100463.06;;;17.73;79.07
23805;BME280;12083;52.098;7.582;2022-09-09T02:37:53;100467.63;;;17.71;79.59
23805;BME280;12083;52.098;7.582;2022-09-09T02:40:21;100464.97;;;17.71;79.43
23805;BME280;12083;52.098;7.582;2022-09-09T02:42:55;100463.16;;;17.72;79.34
23805;BME280;12083;52.098;7.582;2022-09-09T02:45:24;100466.69;;;17.72;79.33
23805;BME280;12083;52.098;7.582;2022-09-09T02:48:07;100464.97;;;17.71;79.70
23805;BME280;12083;52.098;7.582;2022-09-09T02:50:54;100471.13;;;17.72;79.67
23805;BME280;12083;52.098;7.582;2022-09-09T02:56:38;100480.91;;;17.71;79.46
23805;BME280;12083;52.098;7.582;2022-09-09T02:59:06;100477.38;;;17.71;79.44
23805;BME280;12083;52.098;7.582;2022-09-09T03:01:33;100478.25;;;17.71;79.64
23805;BME280;12083;52.098;7.582;2022-09-09T03:04:02;100474.72;;;17.71;79.94
23805;BME280;12083;52.098;7.582;2022-09-09T03:06:30;100473.88;;;17.70;79.78
23805;BME280;12083;52.098;7.582;2022-09-09T03:09:05;100474.72;;;17.71;79.76
23805;BME280;12083;52.098;7.582;2022-09-09T03:11:31;100478.31;;;17.70;79.92
23805;BME280;12083;52.098;7.582;2022-09-09T03:13:57;100473.94;;;17.69;80.03
23805;BME280;12083;52.098;7.582;2022-09-09T03:16:24;100471.28;;;17.69;80.04
23805;BME280;12083;52.098;7.582;2022-09-09T03:18:52;100474.13;;;17.66;80.58
23805;BME280;12083;52.098;7.582;2022-09-09T03:21:19;100467.94;;;17.65;80.49
23805;BME280;12083;52.098;7.582;2022-09-09T03:23:46;100472.31;;;17.66;80.46
23805;BME280;12083;52.098;7.582;2022-09-09T03:26:12;100468.06;;;17.64;80.53
23805;BME280;12083;52.098;7.582;2022-09-09T03:28:43;100472.50;;;17.63;80.42
23805;BME280;12083;52.098;7.582;2022-09-09T03:31:11;100467.19;;;17.63;80.59
23805;BME280;12083;52.098;7.582;2022-09-09T03:33:40;100468.22;;;17.60;80.75
23805;BME280;12083;52.098;7.582;2022-09-09T03:36:09;100464.72;;;17.60;80.86
23805;BME280;12083;52.098;7.582;2022-09-09T03:38:35;100464.72;;;17.60;80.82
23805;BME280;12083;52.098;7.582;2022-09-09T03:41:00;100459.47;;;17.58;80.90
23805;BME280;12083;52.098;7.582;2022-09-09T03:43:28;100457.75;;;17.57;81.38
23805;BME280;12083;52.098;7.582;2022-09-09T03:45:55;100460.41;;;17.57;81.03
23805;BME280;12083;52.098;7.582;2022-09-09T03:48:26;100456.94;;;17.57;81.02
23805;BME280;12083;52.098;7.582;2022-09-09T03:50:54;100461.44;;;17.55;81.34
23805;BME280;12083;52.098;7.582;2022-09-09T03:53:22;100463.22;;;17.54;81.61
23805;BME280;12083;52.098;7.582;2022-09-09T03:55:51;100461.50;;;17.53;81.58
23805;BME280;12083;52.098;7.582;2022-09-09T03:58:22;100454.50;;;17.52;81.53
23805;BME280;12083;52.098;7.582;2022-09-09T04:00:58;100458.94;;;17.52;81.99
23805;BME280;12083;52.098;7.582;2022-09-09T04:03:26;100454.66;;;17.49;81.69
23805;BME280;12083;52.098;7.582;2022-09-09T04:05:53;100454.75;;;17.48;81.68
23805;BME280;12083;52.098;7.582;2022-09-09T04:08:20;100453.97;;;17.46;82.10
23805;BME280;12083;52.098;7.582;2022-09-09T04:10:48;100452.28;;;17.45;82.13
23805;BME280;12083;52.098;7.582;2022-09-09T04:13:15;100457.59;;;17.45;82.01
23805;BME280;12083;52.098;7.582;2022-09-09T05:01:07;100482.06;;;17.34;83.48
23805;BME280;12083;52.098;7.582;2022-09-09T05:03:33;100481.13;;;17.35;83.22
23805;BME280;12083;52.098;7.582;2022-09-09T05:06:05;100481.06;;;17.37;83.32
23805;BME280;12083;52.098;7.582;2022-09-09T05:08:31;100475.75;;;17.37;83.52
23805;BME280;12083;52.098;7.582;2022-09-09T05:10:57;100476.69;;;17.36;83.61
23805;BME280;12083;52.098;7.582;2022-09-09T05:13:26;100479.16;;;17.39;83.58
23805;BME280;12083;52.098;7.582;2022-09-09T05:15:53;100473.84;;;17.39;83.57
23805;BME280;12083;52.098;7.582;2022-09-09T05:18:19;100476.50;;;17.39;83.66
23805;BME280;12083;52.098;7.582;2022-09-09T05:20:45;100476.44;;;17.40;83.96
23805;BME280;12083;52.098;7.582;2022-09-09T05:23:10;100471.97;;;17.41;84.15
23805;BME280;12083;52.098;7.582;2022-09-09T05:25:40;100470.06;;;17.43;84.44
23805;BME280;12083;52.098;7.582;2022-09-09T05:28:07;100469.22;;;17.42;84.37
23805;BME280;12083;52.098;7.582;2022-09-09T05:30:33;100465.63;;;17.43;84.73
23805;BME280;12083;52.098;7.582;2022-09-09T05:33:01;100477.97;;;17.44;84.66
23805;BME280;12083;52.098;7.582;2022-09-09T05:35:26;100467.34;;;17.44;84.97
23805;BME280;12083;52.098;7.582;2022-09-09T05:37:52;100468.03;;;17.48;85.08
23805;BME280;12083;52.098;7.582;2022-09-09T05:40:18;100471.44;;;17.50;85.17
23805;BME280;12083;52.098;7.582;2022-09-09T05:42:44;100474.78;;;17.53;85.37
23805;BME280;12083;52.098;7.582;2022-09-09T05:45:10;100476.44;;;17.56;84.93
23805;BME280;12083;52.098;7.582;2022-09-09T05:47:37;100477.22;;;17.58;85.16
23805;BME280;12083;52.098;7.582;2022-09-09T05:50:05;100484.19;;;17.60;84.77
23805;BME280;12083;52.098;7.582;2022-09-09T05:52:31;100482.34;;;17.61;85.33
23805;BME280;12083;52.098;7.582;2022-09-09T05:54:58;100472.56;;;17.61;85.24
23805;BME280;12083;52.098;7.582;2022-09-09T05:57:25;100475.16;;;17.63;85.32
23805;BME280;12083;52.098;7.582;2022-09-09T05:59:51;100482.09;;;17.66;85.31
23805;BME280;12083;52.098;7.582;2022-09-09T06:02:16;100474.03;;;17.67;85.24
23805;BME280;12083;52.098;7.582;2022-09-09T06:04:42;100473.13;;;17.68;85.43
23805;BME280;12083;52.098;7.582;2022-09-09T06:07:07;100471.28;;;17.69;85.62
23805;BME280;12083;52.098;7.582;2022-09-09T06:09:34;100470.28;;;17.71;85.45
23805;BME280;12083;52.098;7.582;2022-09-09T06:12:00;100471.03;;;17.73;85.68
23805;BME280;12083;52.098;7.582;2022-09-09T06:14:26;100470.94;;;17.75;85.71
23805;BME280;12083;52.098;7.582;2022-09-09T06:16:53;100470.75;;;17.78;85.54
23805;BME280;12083;52.098;7.582;2022-09-09T06:19:21;100469.84;;;17.79;85.65
23805;BME280;12083;52.098;7.582;2022-09-09T06:21:49;100471.44;;;17.81;86.08
23805;BME280;12083;52.098;7.582;2022-09-09T06:24:16;100471.25;;;17.84;85.65
23805;BME280;12083;52.098;7.582;2022-09-09T06:26:43;100476.41;;;17.87;86.16
23805;BME280;12083;52.098;7.582;2022-09-09T06:29:18;100468.25;;;17.90;85.74
23805;BME280;12083;52.098;7.582;2022-09-09T06:31:44;100466.28;;;17.94;86.20
23805;BME280;12083;52.098;7.582;2022-09-09T06:34:15;100469.63;;;17.97;86.05
23805;BME280;12083;52.098;7.582;2022-09-09T06:36:45;100468.50;;;18.01;86.34
23805;BME280;12083;52.098;7.582;2022-09-09T06:39:12;100477.06;;;18.06;86.34
23805;BME280;12083;52.098;7.582;2022-09-09T06:41:38;100475.81;;;18.12;86.13
23805;BME280;12083;52.098;7.582;2022-09-09T06:44:08;100477.34;;;18.16;85.91
23805;BME280;12083;52.098;7.582;2022-09-09T06:46:39;100474.44;;;18.21;86.18
23805;BME280;12083;52.098;7.582;2022-09-09T06:49:08;100483.00;;;18.26;86.16
23805;BME280;12083;52.098;7.582;2022-09-09T06:51:36;100481.75;;;18.31;86.21
23805;BME280;12083;52.098;7.582;2022-09-09T06:54:03;100483.97;;;18.39;85.86
23805;BME280;12083;52.098;7.582;2022-09-09T06:56:32;100476.38;;;18.47;85.73
23805;BME280;12083;52.098;7.582;2022-09-09T06:59:03;100477.59;;;18.57;85.65
23805;BME280;12083;52.098;7.582;2022-09-09T07:01:35;100477.78;;;18.68;85.78
23805;BME280;12083;52.098;7.582;2022-09-09T07:04:05;100471.81;;;18.79;86.15
23805;BME280;12083;52.098;7.582;2022-09-09T07:06:36;100480.84;;;18.90;85.58
23805;BME280;12083;52.098;7.582;2022-09-09T07:09:07;100480.06;;;19.02;85.62
23805;BME280;12083;52.098;7.582;2022-09-09T07:11:38;100486.72;;;19.10;85.48
23805;BME280;12083;52.098;7.582;2022-09-09T07:14:04;100484.31;;;19.19;85.15
23805;BME280;12083;52.098;7.582;2022-09-09T07:16:30;100486.63;;;19.25;84.80
23805;BME280;12083;52.098;7.582;2022-09-09T07:18:59;100483.66;;;19.30;84.54
23805;BME280;12083;52.098;7.582;2022-09-09T07:21:27;100488.78;;;19.33;84.27
23805;BME280;12083;52.098;7.582;2022-09-09T07:23:53;100492.41;;;19.32;84.25
23805;BME280;12083;52.098;7.582;2022-09-09T07:26:23;100496.88;;;19.31;84.19
23805;BME280;12083;52.098;7.582;2022-09-09T07:28:50;100496.00;;;19.31;84.07
23805;BME280;12083;52.098;7.582;2022-09-09T07:31:20;100492.59;;;19.29;84.30
23805;BME280;12083;52.098;7.582;2022-09-09T07:33:47;100500.50;;;19.30;83.95
23805;BME280;12083;52.098;7.582;2022-09-09T07:36:21;100493.25;;;19.32;84.25
23805;BME280;12083;52.098;7.582;2022-09-09T07:38:54;100496.56;;;19.36;84.23
23805;BME280;12083;52.098;7.582;2022-09-09T07:41:32;100503.34;;;19.41;84.13
23805;BME280;12083;52.098;7.582;2022-09-09T07:43:59;100499.34;;;19.48;84.13
23805;BME280;12083;52.098;7.582;2022-09-09T07:46:28;100500.47;;;19.59;84.48
23805;BME280;12083;52.098;7.582;2022-09-09T07:48:56;100501.47;;;19.70;84.36
23805;BME280;12083;52.098;7.582;2022-09-09T07:51:28;100499.59;;;19.85;84.23
23805;BME280;12083;52.098;7.582;2022-09-09T07:53:57;100501.47;;;19.97;84.03
23805;BME280;12083;52.098;7.582;2022-09-09T07:56:24;100498.66;;;20.13;83.89
23805;BME280;12083;52.098;7.582;2022-09-09T07:58:51;100496.69;;;20.29;83.65
23805;BME280;12083;52.098;7.582;2022-09-09T08:01:24;100499.09;;;20.46;83.21
23805;BME280;12083;52.098;7.582;2022-09-09T08:03:56;100496.84;;;20.65;82.91
23805;BME280;12083;52.098;7.582;2022-09-09T08:06:25;100496.31;;;20.85;82.60
23805;BME280;12083;52.098;7.582;2022-09-09T08:08:53;100491.38;;;21.05;82.10
23805;BME280;12083;52.098;7.582;2022-09-09T08:11:22;100489.50;;;21.19;81.63
23805;BME280;12083;52.098;7.582;2022-09-09T08:13:49;100487.94;;;21.28;81.15
23805;BME280;12083;52.098;7.582;2022-09-09T08:16:18;100487.75;;;21.31;80.62
23805;BME280;12083;52.098;7.582;2022-09-09T08:18:44;100491.47;;;21.28;80.53
23805;BME280;12083;52.098;7.582;2022-09-09T08:21:19;100490.84;;;21.25;80.30
23805;BME280;12083;52.098;7.582;2022-09-09T08:23:45;100494.84;;;21.19;79.96
23805;BME280;12083;52.098;7.582;2022-09-09T08:26:16;100497.69;;;21.16;79.95
23805;BME280;12083;52.098;7.582;2022-09-09T08:28:43;100497.19;;;21.11;79.51
23805;BME280;12083;52.098;7.582;2022-09-09T08:31:11;100501.97;;;21.06;79.44
23805;BME280;12083;52.098;7.582;2022-09-09T08:33:39;100501.44;;;21.01;79.40
23805;BME280;12083;52.098;7.582;2022-09-09T08:36:10;100497.16;;;20.99;79.41
23805;BME280;12083;52.098;7.582;2022-09-09T08:38:36;100499.84;;;20.99;79.17
23805;BME280;12083;52.098;7.582;2022-09-09T08:43:48;100507.13;;;20.97;79.08
23805;BME280;12083;52.098;7.582;2022-09-09T08:46:44;100506.75;;;21.01;79.26
23805;BME280;12083;52.098;7.582;2022-09-09T08:52:15;100505.69;;;21.29;79.25
23805;BME280;12083;52.098;7.582;2022-09-09T08:54:42;100499.25;;;21.44;79.68
23805;BME280;12083;52.098;7.582;2022-09-09T08:57:14;100502.09;;;21.66;79.14
23805;BME280;12083;52.098;7.582;2022-09-09T08:59:44;100500.72;;;21.84;78.77
23805;BME280;12083;52.098;7.582;2022-09-09T09:10:48;100487.28;;;22.21;77.09
23805;BME280;12083;52.098;7.582;2022-09-09T09:13:39;100492.47;;;22.35;77.08
23805;BME280;12083;52.098;7.582;2022-09-09T09:16:23;100497.84;;;22.46;76.22
23805;BME280;12083;52.098;7.582;2022-09-09T09:18:52;100492.84;;;22.53;75.71
23805;BME280;12083;52.098;7.582;2022-09-09T09:21:42;100493.72;;;22.64;75.45
23805;BME280;12083;52.098;7.582;2022-09-09T09:26:45;100490.28;;;22.97;74.88
23805;BME280;12083;52.098;7.582;2022-09-09T09:29:13;100488.22;;;23.12;74.39
23805;BME280;12083;52.098;7.582;2022-09-09T09:31:48;100493.69;;;23.21;73.57
23805;BME280;12083;52.098;7.582;2022-09-09T09:34:16;100489.91;;;23.24;72.98
23805;BME280;12083;52.098;7.582;2022-09-09T09:36:46;100492.59;;;23.24;72.64
23805;BME280;12083;52.098;7.582;2022-09-09T09:39:32;100496.00;;;23.26;71.92
23805;BME280;12083;52.098;7.582;2022-09-09T09:42:12;100491.63;;;23.36;71.80
23805;BME280;12083;52.098;7.582;2022-09-09T09:44:41;100495.03;;;23.49;71.86
23805;BME280;12083;52.098;7.582;2022-09-09T09:47:18;100489.63;;;23.60;71.06
23805;BME280;12083;52.098;7.582;2022-09-09T09:49:56;100491.47;;;23.71;70.76
23805;BME280;12083;52.098;7.582;2022-09-09T09:52:26;100498.88;;;23.79;70.12
23805;BME280;12083;52.098;7.582;2022-09-09T09:54:53;100483.38;;;23.82;69.38
23805;BME280;12083;52.098;7.582;2022-09-09T09:57:24;100484.06;;;23.95;69.12
23805;BME280;12083;52.098;7.582;2022-09-09T10:02:41;100487.53;;;24.18;67.97
23805;BME280;12083;52.098;7.582;2022-09-09T10:05:22;100480.91;;;24.22;67.12
23805;BME280;12083;52.098;7.582;2022-09-09T10:08:11;100484.59;;;24.21;67.06
23805;BME280;12083;52.098;7.582;2022-09-09T10:10:57;100488.84;;;24.24;67.06
23805;BME280;12083;52.098;7.582;2022-09-09T10:16:18;100489.91;;;24.32;66.46
23805;BME280;12083;52.098;7.582;2022-09-09T10:19:01;100484.97;;;24.37;66.28
23805;BME280;12083;52.098;7.582;2022-09-09T10:22:19;100483.03;;;24.39;66.03
23805;BME280;12083;52.098;7.582;2022-09-09T10:33:47;100486.97;;;24.35;64.12
23805;BME280;12083;52.098;7.582;2022-09-09T10:36:20;100493.38;;;24.23;64.02
23805;BME280;12083;52.098;7.582;2022-09-09T10:39:14;100484.34;;;24.13;63.44
23805;BME280;12083;52.098;7.582;2022-09-09T10:44:46;100477.63;;;24.60;62.55
23805;BME280;12083;52.098;7.582;2022-09-09T10:55:43;100470.81;;;26.06;58.02
23805;BME280;12083;52.098;7.582;2022-09-09T10:58:17;100472.63;;;26.53;56.32
23805;BME280;12083;52.098;7.582;2022-09-09T11:00:52;100476.84;;;26.85;55.14
23805;BME280;12083;52.098;7.582;2022-09-09T11:03:23;100474.03;;;26.67;55.45
23805;BME280;12083;52.098;7.582;2022-09-09T11:06:00;100476.94;;;26.37;55.71
23805;BME280;12083;52.098;7.582;2022-09-09T11:08:31;100476.03;;;26.07;56.07
23805;BME280;12083;52.098;7.582;2022-09-09T11:11:19;100475.66;;;26.02;55.52
23805;BME280;12083;52.098;7.582;2022-09-09T11:13:54;100470.41;;;26.20;55.94
23805;BME280;12083;52.098;7.582;2022-09-09T11:21:46;100468.56;;;26.96;54.25
23805;BME280;12083;52.098;7.582;2022-09-09T11:26:52;100471.28;;;26.77;54.32
23805;BME280;12083;52.098;7.582;2022-09-09T11:29:46;100464.78;;;26.79;54.43
23805;BME280;12083;52.098;7.582;2022-09-09T11:40:32;100460.97;;;29.29;49.22
23805;BME280;12083;52.098;7.582;2022-09-09T11:43:26;100461.69;;;29.98;47.93
23805;BME280;12083;52.098;7.582;2022-09-09T11:45:54;100461.19;;;30.26;47.63
23805;BME280;12083;52.098;7.582;2022-09-09T11:51:10;100465.47;;;29.63;46.97
23805;BME280;12083;52.098;7.582;2022-09-09T11:53:49;100465.19;;;29.82;46.86
23805;BME280;12083;52.098;7.582;2022-09-09T11:56:34;100459.16;;;30.28;45.93
23805;BME280;12083;52.098;7.582;2022-09-09T11:59:02;100463.03;;;30.66;45.45
23805;BME280;12083;52.098;7.582;2022-09-09T12:01:39;100460.91;;;31.09;44.53
23805;BME280;12083;52.098;7.582;2022-09-09T12:04:13;100458.19;;;31.56;43.56
23805;BME280;12083;52.098;7.582;2022-09-09T12:06:48;100459.03;;;31.87;42.94
23805;BME280;12083;52.098;7.582;2022-09-09T12:09:27;100455.91;;;31.67;42.91
23805;BME280;12083;52.098;7.582;2022-09-09T12:19:41;100447.19;;;32.26;41.13
23805;BME280;12083;52.098;7.582;2022-09-09T12:25:00;100449.47;;;31.69;41.10
23805;BME280;12083;52.098;7.582;2022-09-09T12:27:46;100464.19;;;30.96;41.28
23805;BME280;12083;52.098;7.582;2022-09-09T12:30:24;100456.78;;;30.25;41.91
23805;BME280;12083;52.098;7.582;2022-09-09T12:33:06;100453.97;;;29.61;41.50
23805;BME280;12083;52.098;7.582;2022-09-09T12:35:34;100454.78;;;29.11;42.12
23805;BME280;12083;52.098;7.582;2022-09-09T12:38:02;100463.69;;;28.70;42.53
23805;BME280;12083;52.098;7.582;2022-09-09T12:40:32;100467.13;;;28.36;42.88
23805;BME280;12083;52.098;7.582;2022-09-09T12:43:01;100461.94;;;28.08;43.29
23805;BME280;12083;52.098;7.582;2022-09-09T12:45:29;100463.72;;;27.81;43.19
23805;BME280;12083;52.098;7.582;2022-09-09T12:50:31;100455.84;;;27.53;43.56
23805;BME280;12083;52.098;7.582;2022-09-09T12:53:56;100453.91;;;27.35;43.92
23805;BME280;12083;52.098;7.582;2022-09-09T12:56:23;100454.19;;;27.15;44.29
23805;BME280;12083;52.098;7.582;2022-09-09T12:58:52;100458.50;;;26.98;44.25
23805;BME280;12083;52.098;7.582;2022-09-09T13:01:23;100461.06;;;26.80;44.68
23805;BME280;12083;52.098;7.582;2022-09-09T13:03:49;100454.44;;;26.65;44.90
23805;BME280;12083;52.098;7.582;2022-09-09T13:06:26;100444.44;;;26.48;44.73
23805;BME280;12083;52.098;7.582;2022-09-09T13:08:53;100443.16;;;26.42;45.13
23805;BME280;12083;52.098;7.582;2022-09-09T13:11:29;100440.47;;;26.42;45.24
23805;BME280;12083;52.098;7.582;2022-09-09T13:13:57;100433.50;;;26.49;45.12
23805;BME280;12083;52.098;7.582;2022-09-09T13:16:32;100427.38;;;26.67;45.14
23805;BME280;12083;52.098;7.582;2022-09-09T13:19:01;100431.72;;;26.77;44.87
23805;BME280;12083;52.098;7.582;2022-09-09T13:21:38;100433.72;;;26.85;45.01
23805;BME280;12083;52.098;7.582;2022-09-09T13:27:00;100423.94;;;26.84;44.66
23805;BME280;12083;52.098;7.582;2022-09-09T13:29:30;100426.34;;;26.87;44.74
23805;BME280;12083;52.098;7.582;2022-09-09T13:32:12;100425.19;;;26.89;44.78
23805;BME280;12083;52.098;7.582;2022-09-09T13:34:59;100423.09;;;26.83;44.75
23805;BME280;12083;52.098;7.582;2022-09-09T13:39:54;100438.63;;;26.52;44.75
23805;BME280;12083;52.098;7.582;2022-09-09T13:42:28;100454.25;;;26.30;44.46
23805;BME280;12083;52.098;7.582;2022-09-09T13:44:55;100462.59;;;25.88;45.33
23805;BME280;12083;52.098;7.582;2022-09-09T13:47:28;100470.00;;;25.46;46.14
23805;BME280;12083;52.098;7.582;2022-09-09T13:49:55;100466.31;;;24.98;47.10
23805;BME280;12083;52.098;7.582;2022-09-09T13:52:21;100472.81;;;24.75;47.79
23805;BME280;12083;52.098;7.582;2022-09-09T13:54:48;100465.59;;;24.54;47.99
23805;BME280;12083;52.098;7.582;2022-09-09T13:57:20;100468.88;;;24.37;48.75
23805;BME280;12083;52.098;7.582;2022-09-09T13:59:46;100471.88;;;24.23;48.89
23805;BME280;12083;52.098;7.582;2022-09-09T14:02:13;100478.03;;;24.14;49.58
23805;BME280;12083;52.098;7.582;2022-09-09T14:04:39;100473.75;;;24.11;49.92
23805;BME280;12083;52.098;7.582;2022-09-09T14:07:11;100473.16;;;24.08;50.51
23805;BME280;12083;52.098;7.582;2022-09-09T14:09:38;100462.69;;;24.05;50.81
23805;BME280;12083;52.098;7.582;2022-09-09T14:12:04;100467.56;;;24.00;51.02
23805;BME280;12083;52.098;7.582;2022-09-09T14:14:30;100473.69;;;23.91;51.32
23805;BME280;12083;52.098;7.582;2022-09-09T14:16:55;100469.38;;;23.79;51.88
23805;BME280;12083;52.098;7.582;2022-09-09T14:19:21;100475.38;;;23.71;51.98
23805;BME280;12083;52.098;7.582;2022-09-09T14:21:46;100478.31;;;23.57;52.52
23805;BME280;12083;52.098;7.582;2022-09-09T14:24:12;100489.91;;;23.46;52.56
23805;BME280;12083;52.098;7.582;2022-09-09T14:26:38;100503.16;;;23.37;52.79
23805;BME280;12083;52.098;7.582;2022-09-09T14:29:03;100498.69;;;23.15;54.27
23805;BME280;12083;52.098;7.582;2022-09-09T14:31:29;100506.97;;;22.90;55.06
23805;BME280;12083;52.098;7.582;2022-09-09T14:33:55;100504.75;;;22.72;55.78
23805;BME280;12083;52.098;7.582;2022-09-09T14:36:20;100505.19;;;22.66;55.98
23805;BME280;12083;52.098;7.582;2022-09-09T14:38:46;100513.94;;;22.57;56.65
23805;BME280;12083;52.098;7.582;2022-09-09T14:41:14;100514.53;;;22.50;56.56
23805;BME280;12083;52.098;7.582;2022-09-09T14:43:42;100518.63;;;22.43;56.77
23805;BME280;12083;52.098;7.582;2022-09-09T14:46:10;100521.16;;;22.33;57.39
23805;BME280;12083;52.098;7.582;2022-09-09T14:48:36;100518.19;;;22.25;57.54
23805;BME280;12083;52.098;7.582;2022-09-09T14:53:34;100504.53;;;22.17;58.06
23805;BME280;12083;52.098;7.582;2022-09-09T14:58:36;100501.66;;;22.20;59.04
23805;BME280;12083;52.098;7.582;2022-09-09T15:01:07;100503.84;;;22.26;59.18
23805;BME280;12083;52.098;7.582;2022-09-09T15:03:35;100507.91;;;22.31;59.05
23805;BME280;12083;52.098;7.582;2022-09-09T15:06:12;100497.56;;;22.38;59.61
23805;BME280;12083;52.098;7.582;2022-09-09T15:08:40;100495.28;;;22.45;59.37
23805;BME280;12083;52.098;7.582;2022-09-09T15:11:07;100486.78;;;22.51;59.80
23805;BME280;12083;52.098;7.582;2022-09-09T15:13:34;100496.16;;;22.56;59.70
23805;BME280;12083;52.098;7.582;2022-09-09T15:16:14;100500.28;;;22.60;60.25
23805;BME280;12083;52.098;7.582;2022-09-09T15:18:41;100491.19;;;22.63;59.94
23805;BME280;12083;52.098;7.582;2022-09-09T15:21:15;100487.41;;;22.65;59.77
23805;BME280;12083;52.098;7.582;2022-09-09T15:23:42;100491.59;;;22.69;59.79
23805;BME280;12083;52.098;7.582;2022-09-09T15:26:08;100487.72;;;22.73;59.82
23805;BME280;12083;52.098;7.582;2022-09-09T15:28:35;100479.53;;;22.75;59.82
23805;BME280;12083;52.098;7.582;2022-09-09T15:31:27;100476.13;;;22.73;60.15
23805;BME280;12083;52.098;7.582;2022-09-09T15:33:55;100477.25;;;22.70;60.05
23805;BME280;12083;52.098;7.582;2022-09-09T15:36:28;100474.03;;;22.65;60.10
23805;BME280;12083;52.098;7.582;2022-09-09T15:38:55;100470.59;;;22.63;59.93
23805;BME280;12083;52.098;7.582;2022-09-09T15:41:21;100465.72;;;22.57;60.11
23805;BME280;12083;52.098;7.582;2022-09-09T15:43:49;100467.91;;;22.52;60.14
23805;BME280;12083;52.098;7.582;2022-09-09T15:48:50;100467.16;;;22.39;60.53
23805;BME280;12083;52.098;7.582;2022-09-09T15:51:16;100453.50;;;22.31;60.63